Time;durP1;ratioP1;P1;durP2;ratioP2;P2;SDS_P1;SDS_P2;PMS_P1;PMS_P2;Temp;Humidity;BMP_temperature;BMP_pressure;BME280_temperature;BME280_humidity;BME280_pressure;Samples;Min_cycle;Max_cycle;Signal;HPM_P1;HPM_P2
2023/06/20 00:00:59;;;;;;;9.37;6.80;;;;;;;19.16;89.06;94999.38;5075108;28;20815;-80
2023/06/20 00:03:26;;;;;;;9.70;6.73;;;;;;;19.15;88.87;94988.91;5040454;28;20429;-80
2023/06/20 00:05:53;;;;;;;9.10;8.00;;;;;;;19.05;87.15;94989.13;5074999;28;20798;-80
2023/06/20 00:08:20;;;;;;;9.60;7.57;;;;;;;19.05;87.84;95002.44;5075113;28;20485;-79
2023/06/20 00:10:47;;;;;;;8.67;7.77;;;;;;;19.02;87.52;94997.47;5075068;28;20449;-80
2023/06/20 00:13:17;;;;;;;8.90;7.00;;;;;;;19.07;88.05;94997.75;5075427;28;20460;-80
2023/06/20 00:15:46;;;;;;;9.87;7.60;;;;;;;19.03;86.09;94995.66;5075192;28;20440;-80
2023/06/20 00:18:13;;;;;;;9.30;6.93;;;;;;;19.11;86.79;95004.41;5075431;28;20440;-79
2023/06/20 00:20:40;;;;;;;8.33;7.33;;;;;;;19.13;87.06;94999.72;5075346;28;20452;-80
2023/06/20 00:23:07;;;;;;;11.50;7.87;;;;;;;19.07;88.81;94991.63;5075275;28;20449;-80
2023/06/20 00:25:34;;;;;;;8.93;8.03;;;;;;;19.11;87.96;94991.09;5075057;28;20441;-80
2023/06/20 00:28:02;;;;;;;10.00;7.37;;;;;;;19.15;87.55;95002.22;5074449;28;20480;-81
2023/06/20 00:30:30;;;;;;;11.20;7.83;;;;;;;19.10;88.06;94983.31;5075096;28;20444;-81
2023/06/20 00:32:58;;;;;;;8.77;7.87;;;;;;;19.19;88.03;94999.00;5078223;28;20457;-81
2023/06/20 00:35:25;;;;;;;13.17;7.40;;;;;;;19.18;88.74;94991.22;5042146;28;20931;-81
2023/06/20 00:37:52;;;;;;;12.00;8.23;;;;;;;19.22;86.85;95002.31;5074666;28;20491;-82
2023/06/20 00:40:19;;;;;;;10.87;7.17;;;;;;;19.18;88.39;94993.88;5074919;28;20429;-80
2023/06/20 00:42:47;;;;;;;12.10;8.30;;;;;;;19.17;89.09;94990.38;5075187;28;20429;-80
2023/06/20 00:45:32;;;;;;;7.83;7.03;;;;;;;19.19;89.30;94996.34;5074578;28;20486;-81
2023/06/20 00:48:01;;;;;;;11.37;8.13;;;;;;;19.12;88.80;94984.78;5074703;28;20502;-80
2023/06/20 00:50:29;;;;;;;10.53;7.60;;;;;;;19.12;87.67;94984.78;5074041;28;20450;-81
2023/06/20 00:53:01;;;;;;;9.60;7.83;;;;;;;19.10;87.42;94986.78;5074048;28;20429;-80
2023/06/20 00:55:31;;;;;;;9.83;7.10;;;;;;;19.06;88.05;94992.63;5073988;28;20482;-80
2023/06/20 00:57:59;;;;;;;8.47;7.67;;;;;;;19.03;87.51;94993.81;5073828;28;20797;-81
2023/06/20 01:00:27;;;;;;;9.33;8.40;;;;;;;19.07;88.70;94991.63;5074315;28;20446;-78
2023/06/20 01:03:01;;;;;;;13.63;7.40;;;;;;;19.05;88.76;94993.63;5074125;28;20447;-80
2023/06/20 01:05:28;;;;;;;9.53;7.50;;;;;;;19.03;88.14;94987.66;5067545;28;20434;-81
2023/06/20 01:18:08;;;;;;;8.77;7.17;;;;;;;18.81;87.12;94990.19;5053775;28;20423;-80
2023/06/20 01:20:43;;;;;;;10.57;8.30;;;;;;;18.76;88.06;94994.38;5053540;28;20469;-80
2023/06/20 01:23:14;;;;;;;8.23;7.50;;;;;;;18.72;87.63;94991.22;5054119;28;20954;-80
2023/06/20 01:25:47;;;;;;;7.00;6.40;;;;;;;18.68;88.01;94984.63;5053447;28;20904;-81
2023/06/20 01:28:22;;;;;;;9.33;7.87;;;;;;;18.61;86.44;94982.81;5054163;28;20476;-81
2023/06/20 01:31:01;;;;;;;8.23;7.40;;;;;;;18.52;86.38;94984.72;5053265;28;20428;-80
2023/06/20 01:33:31;;;;;;;10.53;8.57;;;;;;;18.51;88.41;94983.91;5054186;28;20981;-80
2023/06/20 01:36:01;;;;;;;7.33;6.63;;;;;;;18.48;87.71;94984.22;5053518;28;20438;-80
2023/06/20 01:38:32;;;;;;;8.80;7.93;;;;;;;18.43;88.85;94975.97;5054197;28;20432;-79
2023/06/20 01:41:02;;;;;;;10.30;8.03;;;;;;;18.45;89.92;94978.44;5054382;28;20448;-80
2023/06/20 01:43:31;;;;;;;11.77;7.50;;;;;;;18.50;92.26;94984.91;5054109;28;20435;-80
2023/06/20 01:46:01;;;;;;;9.97;7.50;;;;;;;18.49;93.49;94990.34;5053685;28;20505;-81
2023/06/20 01:48:32;;;;;;;11.30;7.63;;;;;;;18.49;90.87;94991.19;5053438;28;20476;-80
2023/06/20 01:51:00;;;;;;;10.37;7.93;;;;;;;18.52;89.08;95000.66;5053565;28;20926;-80
2023/06/20 01:53:29;;;;;;;11.47;7.50;;;;;;;18.50;87.72;95002.66;5053289;28;20463;-80
2023/06/20 01:56:01;;;;;;;9.27;8.27;;;;;;;18.39;89.35;94990.59;5053673;28;20488;-80
2023/06/20 01:58:29;;;;;;;11.10;7.80;;;;;;;18.36;89.74;94996.25;5053745;28;20463;-81
2023/06/20 02:00:57;;;;;;;8.80;7.83;;;;;;;18.36;89.69;94998.09;5053331;28;20430;-80
2023/06/20 02:03:27;;;;;;;15.60;8.43;;;;;;;18.34;89.39;94998.28;5054070;28;20438;-80
2023/06/20 02:05:56;;;;;;;8.80;8.00;;;;;;;18.34;89.09;95003.59;5053438;28;20992;-81
2023/06/20 02:08:25;;;;;;;10.30;8.53;;;;;;;18.38;89.41;94999.56;5053113;28;20468;-81
2023/06/20 02:10:53;;;;;;;9.03;8.10;;;;;;;18.36;88.25;95001.56;5053785;28;20826;-80
2023/06/20 02:13:22;;;;;;;10.50;7.57;;;;;;;18.32;91.94;94997.63;5053979;28;20439;-81
2023/06/20 02:15:52;;;;;;;13.30;8.43;;;;;;;18.29;91.36;95003.28;5053552;28;20437;-81
2023/06/20 02:31:33;;;;;;;8.80;7.60;;;;;;;17.99;90.33;95004.09;5055908;28;20489;-80
2023/06/20 02:34:04;;;;;;;18.23;8.90;;;;;;;17.99;90.43;95004.09;5057302;28;20442;-81
2023/06/20 02:36:33;;;;;;;12.07;8.57;;;;;;;17.95;92.59;95004.44;5057154;28;20530;-81
2023/06/20 02:39:00;;;;;;;11.50;8.93;;;;;;;17.82;91.53;95013.94;5056937;28;20432;-81
2023/06/20 02:41:26;;;;;;;8.63;7.80;;;;;;;17.81;91.45;95007.81;5057086;28;20430;-81
2023/06/20 02:43:53;;;;;;;9.83;8.47;;;;;;;17.82;92.97;95004.16;5038807;28;20479;-81
2023/06/20 02:46:27;;;;;;;14.40;8.90;;;;;;;17.85;93.25;95014.41;5057097;28;20908;-80
2023/06/20 02:49:04;;;;;;;11.93;8.43;;;;;;;17.84;92.96;95006.63;5057209;28;20474;-81
2023/06/20 02:51:36;;;;;;;10.63;8.60;;;;;;;17.84;92.01;95007.47;5057293;28;20438;-80
2023/06/20 02:54:10;;;;;;;9.17;8.33;;;;;;;17.87;90.81;95009.75;5056631;28;20451;-81
2023/06/20 02:56:40;;;;;;;9.80;8.00;;;;;;;17.87;90.58;95011.59;5056735;28;20473;-80
2023/06/20 02:59:10;;;;;;;15.30;8.53;;;;;;;17.87;90.49;95015.06;5056931;28;20931;-81
2023/06/20 03:01:38;;;;;;;18.90;8.87;;;;;;;17.86;89.86;95016.06;5056986;28;20522;-80
2023/06/20 03:04:08;;;;;;;10.80;8.40;;;;;;;17.88;90.36;95016.72;5056769;28;20493;-81
2023/06/20 03:06:37;;;;;;;9.03;8.13;;;;;;;17.91;90.38;95024.34;5056248;28;20440;-81
2023/06/20 03:09:05;;;;;;;11.50;8.67;;;;;;;17.90;90.29;95020.03;5056303;28;20469;-81
2023/06/20 03:15:12;;;;;;;10.23;9.10;;;;;;;17.86;91.76;95039.13;5056241;28;20397;-82
2023/06/20 03:17:39;;;;;;;10.97;8.80;;;;;;;17.77;92.97;95035.69;5056343;28;20453;-80
2023/06/20 03:20:09;;;;;;;12.33;9.63;;;;;;;17.70;93.49;95040.03;5056380;28;20523;-81
2023/06/20 03:22:36;;;;;;;16.60;12.60;;;;;;;17.55;94.17;95044.34;5056120;28;20444;-81
2023/06/20 03:25:03;;;;;;;13.60;9.23;;;;;;;17.52;94.38;95057.94;5056198;28;20438;-83
2023/06/20 03:27:30;;;;;;;17.23;11.30;;;;;;;17.36;96.55;95055.31;5055881;28;20909;-81
2023/06/20 03:29:57;;;;;;;13.20;9.47;;;;;;;17.52;97.08;95056.13;5056306;28;20527;-81
2023/06/20 03:32:23;;;;;;;13.83;11.37;;;;;;;17.59;96.15;95059.75;5037485;28;20478;-79
2023/06/20 03:34:50;;;;;;;11.20;9.40;;;;;;;17.73;95.61;95068.88;5064358;28;20473;-81
2023/06/20 03:37:18;;;;;;;16.17;9.90;;;;;;;17.98;94.98;95068.81;5024638;28;20441;-79
2023/06/20 03:39:45;;;;;;;11.73;9.53;;;;;;;18.29;93.45;95069.69;5076155;28;20428;-80
2023/06/20 03:42:12;;;;;;;10.53;9.13;;;;;;;18.61;90.13;95066.06;5075549;28;20456;-79
2023/06/20 03:44:42;;;;;;;10.57;9.40;;;;;;;18.91;88.37;95059.09;5076452;28;20434;-81
2023/06/20 03:47:09;;;;;;;9.20;8.27;;;;;;;19.21;86.43;95069.84;5075705;28;20425;-84
2023/06/20 03:49:35;;;;;;;9.03;8.03;;;;;;;19.44;83.33;95065.31;5075458;28;20469;-82
2023/06/20 03:52:02;;;;;;;11.23;8.07;;;;;;;19.64;81.54;95070.97;5075487;28;20933;-81
2023/06/20 03:54:30;;;;;;;8.10;7.30;;;;;;;19.88;80.24;95077.88;5075706;28;20454;-81
2023/06/20 03:56:57;;;;;;;8.43;7.63;;;;;;;20.17;78.45;95080.56;5075552;28;20476;-81
2023/06/20 03:59:24;;;;;;;10.33;7.53;;;;;;;20.68;86.07;95070.78;5075466;28;20440;-80
2023/06/20 04:01:51;;;;;;;11.33;7.60;;;;;;;21.28;80.53;95079.44;5075614;28;20454;-83
2023/06/20 04:04:17;;;;;;;7.30;6.70;;;;;;;21.73;75.43;95080.06;5075387;28;20450;-81
2023/06/20 04:06:49;;;;;;;7.10;6.40;;;;;;;22.03;74.38;95078.81;5024277;28;20451;-81
2023/06/20 04:09:16;;;;;;;11.50;8.70;;;;;;;22.28;71.47;95073.88;5075068;28;20966;-80
2023/06/20 04:11:45;;;;;;;10.87;7.60;;;;;;;22.43;70.38;95071.03;5074497;28;20497;-80
2023/06/20 04:14:11;;;;;;;8.97;7.77;;;;;;;22.58;69.22;95070.91;5076698;28;20448;-80
2023/06/20 04:16:39;;;;;;;8.17;7.20;;;;;;;22.77;70.12;95081.69;5078733;28;20439;-79
2023/06/20 04:19:06;;;;;;;8.73;7.83;;;;;;;22.91;69.83;95081.78;5075199;28;20457;-79
2023/06/20 04:21:32;;;;;;;8.17;7.37;;;;;;;22.82;68.01;95087.28;5075632;28;20764;-79
2023/06/20 04:23:59;;;;;;;8.37;7.47;;;;;;;22.58;67.24;95082.44;5075510;28;20457;-78
2023/06/20 04:26:26;;;;;;;9.40;6.70;;;;;;;22.51;66.04;95076.22;5074855;28;20437;-77
2023/06/20 04:28:54;;;;;;;13.50;8.40;;;;;;;22.61;76.86;95075.88;5039899;28;20506;-79
2023/06/20 04:31:21;;;;;;;13.73;8.53;;;;;;;22.73;76.82;95067.06;5074691;28;20812;-78
2023/06/20 04:33:48;;;;;;;12.17;7.83;;;;;;;23.04;77.42;95071.09;5095305;28;20431;-77
2023/06/20 04:36:15;;;;;;;15.67;7.40;;;;;;;23.17;71.74;95079.16;5095364;28;20803;-78
2023/06/20 04:38:42;;;;;;;11.30;7.90;;;;;;;23.39;78.09;95085.16;5094824;28;20454;-78
2023/06/20 04:41:09;;;;;;;9.50;7.90;;;;;;;23.47;65.14;95083.13;5095057;28;20834;-77
2023/06/20 04:43:36;;;;;;;12.33;9.10;;;;;;;23.60;66.08;95076.16;5088579;28;20465;-80
2023/06/20 04:46:05;;;;;;;10.83;9.70;;;;;;;23.73;66.68;95076.97;5074597;28;20445;-79
2023/06/20 04:48:35;;;;;;;8.47;7.67;;;;;;;23.94;65.79;95081.28;5074502;28;20484;-79
2023/06/20 04:51:02;;;;;;;9.97;8.57;;;;;;;24.12;64.98;95093.22;5074550;28;20436;-77
2023/06/20 04:53:29;;;;;;;14.17;9.80;;;;;;;24.22;65.05;95098.97;5074384;28;20448;-79
2023/06/20 04:55:58;;;;;;;14.60;9.37;;;;;;;24.39;63.12;95095.69;5074124;28;20475;-79
2023/06/20 04:58:28;;;;;;;10.30;9.20;;;;;;;24.14;63.33;95096.53;5074455;28;20433;-79
2023/06/20 05:00:54;;;;;;;14.30;9.30;;;;;;;24.19;65.27;95110.13;5074415;28;20454;-79
2023/06/20 05:03:23;;;;;;;12.63;10.70;;;;;;;23.64;67.22;95106.84;5073595;28;20878;-79
2023/06/20 05:05:50;;;;;;;11.43;10.27;;;;;;;23.71;68.54;95116.56;5073862;28;20436;-78
2023/06/20 05:08:16;;;;;;;13.40;9.60;;;;;;;23.86;67.80;95116.34;5081905;28;20454;-77
2023/06/20 05:10:43;;;;;;;11.10;10.00;;;;;;;23.67;67.73;95104.56;5078983;28;21007;-77
2023/06/20 05:13:10;;;;;;;20.97;10.77;;;;;;;23.46;68.74;95113.63;5041785;28;20857;-78
2023/06/20 05:15:37;;;;;;;10.27;9.27;;;;;;;23.59;70.30;95117.34;5094602;28;20443;-78
2023/06/20 05:18:04;;;;;;;11.50;10.40;;;;;;;23.99;67.75;95116.31;5094293;28;20435;-78
2023/06/20 05:20:32;;;;;;;12.30;10.93;;;;;;;24.31;66.20;95119.22;5093541;28;20451;-79
2023/06/20 05:22:59;;;;;;;14.63;11.67;;;;;;;24.52;65.08;95110.09;5093325;28;20451;-78
2023/06/20 05:25:26;;;;;;;12.40;11.20;;;;;;;24.43;65.95;95109.50;5093049;28;20532;-79
2023/06/20 05:27:53;;;;;;;22.00;11.83;;;;;;;24.45;66.45;95102.06;5093195;28;20451;-78
2023/06/20 05:30:20;;;;;;;14.60;11.93;;;;;;;24.56;66.73;95092.53;5093005;28;20486;-76
2023/06/20 05:32:46;;;;;;;20.03;11.90;;;;;;;24.77;64.49;95091.44;5057461;28;20967;-78
2023/06/20 05:35:13;;;;;;;12.83;11.40;;;;;;;24.99;64.21;95090.13;5092704;28;20809;-79
2023/06/20 05:37:45;;;;;;;14.23;11.00;;;;;;;25.26;63.66;95094.31;5092855;28;20451;-78
2023/06/20 05:40:15;;;;;;;13.50;11.33;;;;;;;25.76;63.25;95091.75;5074384;28;20467;-79
2023/06/20 05:42:41;;;;;;;14.57;11.60;;;;;;;26.21;60.82;95084.28;5093244;28;20448;-78
2023/06/20 05:45:09;;;;;;;11.17;8.93;;;;;;;26.62;59.10;95080.16;5092770;28;20447;-78
2023/06/20 05:47:36;;;;;;;9.87;9.00;;;;;;;26.93;58.42;95084.56;5024204;28;20439;-79
2023/06/20 05:50:03;;;;;;;11.07;7.83;;;;;;;27.06;55.61;95087.09;5092565;28;20482;-78
2023/06/20 05:52:30;;;;;;;9.77;8.30;;;;;;;27.39;54.22;95088.50;5093134;28;20440;-79
2023/06/20 05:54:58;;;;;;;10.00;8.40;;;;;;;27.61;55.38;95073.47;5092464;28;20844;-80
2023/06/20 05:57:25;;;;;;;7.90;6.57;;;;;;;27.79;53.00;95087.97;5092664;28;20475;-79
2023/06/20 05:59:52;;;;;;;10.87;8.30;;;;;;;27.66;52.86;95086.28;5093024;28;20432;-80
2023/06/20 06:02:20;;;;;;;10.60;8.20;;;;;;;27.63;52.28;95086.75;5044351;28;20529;-78
2023/06/20 06:04:48;;;;;;;10.60;9.50;;;;;;;27.51;55.54;95092.09;5097067;28;20439;-78
2023/06/20 06:07:14;;;;;;;15.10;10.83;;;;;;;26.72;56.19;95093.91;5061236;28;20443;-79
2023/06/20 06:09:42;;;;;;;11.20;10.10;;;;;;;26.57;57.86;95095.31;5096471;28;20483;-78
2023/06/20 06:12:11;;;;;;;27.33;11.20;;;;;;;26.56;57.52;95097.19;5096692;28;20448;-78
2023/06/20 06:14:37;;;;;;;12.90;11.20;;;;;;;26.57;58.70;95104.22;5096782;28;20478;-78
2023/06/20 06:17:05;;;;;;;15.40;10.13;;;;;;;26.50;58.38;95098.91;5096408;28;20525;-79
2023/06/20 06:19:32;;;;;;;11.23;9.93;;;;;;;26.32;57.43;95103.44;5044601;28;20435;-80
2023/06/20 06:39:30;;;;;;;14.00;11.30;;;;;;;27.12;58.48;95104.22;5118124;27;20579;-87
2023/06/20 06:41:57;;;;;;;24.37;10.83;;;;;;;27.52;57.70;95096.41;5092326;28;20456;-86
2023/06/20 06:44:24;;;;;;;17.87;10.20;;;;;;;27.97;55.46;95093.25;5090608;28;20440;-86
2023/06/20 06:46:51;;;;;;;17.40;11.23;;;;;;;28.41;54.67;95089.19;5090713;28;20441;-87
2023/06/20 06:49:18;;;;;;;12.10;10.80;;;;;;;28.58;54.51;95087.41;5091420;28;20451;-87
2023/06/20 06:51:45;;;;;;;12.50;11.20;;;;;;;28.75;52.61;95078.56;5091044;28;20443;-87
2023/06/20 06:54:11;;;;;;;12.60;11.07;;;;;;;29.02;52.95;95081.59;5091417;28;20439;-87
2023/06/20 06:56:39;;;;;;;22.90;11.13;;;;;;;28.95;52.29;95084.44;5091609;28;20818;-86
2023/06/20 06:59:07;;;;;;;12.70;11.40;;;;;;;28.81;50.14;95075.72;5055685;28;20969;-85
2023/06/20 07:01:36;;;;;;;14.27;10.30;;;;;;;28.93;51.24;95081.97;5091989;28;20455;-87
2023/06/20 07:04:03;;;;;;;11.40;10.20;;;;;;;29.12;51.45;95073.66;5091624;28;20452;-86
2023/06/20 07:06:30;;;;;;;17.87;10.83;;;;;;;29.39;51.86;95074.72;5091537;28;20428;-87
2023/06/20 07:08:57;;;;;;;10.33;9.30;;;;;;;29.54;50.17;95077.75;5091131;28;20533;-86
2023/06/20 07:11:24;;;;;;;14.40;10.30;;;;;;;29.52;49.26;95082.59;5091558;28;20519;-87
2023/06/20 07:13:52;;;;;;;12.70;11.40;;;;;;;29.64;48.82;95070.88;5091415;28;20945;-86
2023/06/20 07:16:19;;;;;;;12.60;9.97;;;;;;;29.82;49.01;95063.34;5091288;28;20451;-86
2023/06/20 07:18:46;;;;;;;13.33;10.63;;;;;;;29.96;48.80;95063.00;5091227;28;20448;-87
2023/06/20 07:21:13;;;;;;;14.97;10.83;;;;;;;30.12;48.66;95059.53;5056035;28;20445;-86
2023/06/20 07:23:39;;;;;;;13.27;8.87;;;;;;;30.32;49.92;95050.88;5091112;28;20436;-87
2023/06/20 07:26:06;;;;;;;13.27;9.63;;;;;;;30.51;47.71;95047.63;5090888;28;20451;-87
2023/06/20 07:28:33;;;;;;;11.50;9.33;;;;;;;30.65;47.06;95056.25;5089957;28;20483;-86
2023/06/20 07:31:01;;;;;;;10.90;9.90;;;;;;;30.68;47.45;95060.34;5091030;28;20454;-86
2023/06/20 07:33:28;;;;;;;14.27;10.93;;;;;;;30.63;47.03;95058.38;5090368;28;20436;-86
2023/06/20 07:35:55;;;;;;;10.40;9.40;;;;;;;30.57;47.04;95055.81;5089899;28;20451;-87
2023/06/20 07:38:22;;;;;;;12.00;9.30;;;;;;;30.36;48.49;95063.69;5100087;28;20489;-86
2023/06/20 07:40:49;;;;;;;12.33;10.73;;;;;;;30.30;48.63;95066.53;5096435;28;20804;-85
2023/06/20 07:43:16;;;;;;;10.70;9.60;;;;;;;30.24;46.90;95064.84;5096694;28;20934;-87
2023/06/20 07:45:43;;;;;;;10.80;9.67;;;;;;;30.42;46.89;95061.84;5044814;28;20448;-86
2023/06/20 07:48:11;;;;;;;13.00;9.60;;;;;;;30.57;45.72;95059.34;5096497;28;20482;-86
2023/06/20 07:50:38;;;;;;;12.63;8.50;;;;;;;30.67;46.01;95058.72;5096582;28;20443;-88
2023/06/20 07:53:05;;;;;;;18.80;10.37;;;;;;;30.64;44.02;95048.34;5096602;28;20436;-87
2023/06/20 07:55:32;;;;;;;16.03;9.30;;;;;;;30.55;44.61;95055.25;5096814;28;20443;-87
2023/06/20 07:57:59;;;;;;;11.10;9.30;;;;;;;30.53;44.31;95059.03;5044586;28;20444;-87
2023/06/20 08:00:26;;;;;;;15.30;9.00;;;;;;;30.39;43.20;95067.78;5096614;28;20455;-87
2023/06/20 08:02:53;;;;;;;11.70;8.27;;;;;;;30.58;43.47;95060.97;5096261;28;20440;-87
2023/06/20 08:05:21;;;;;;;12.27;8.70;;;;;;;30.44;41.88;95067.84;5096401;28;20809;-87
2023/06/20 08:07:48;;;;;;;10.07;7.73;;;;;;;30.50;42.05;95070.38;5096150;28;20989;-87
2023/06/20 08:10:15;;;;;;;14.10;7.87;;;;;;;30.64;43.03;95062.72;5096452;28;20444;-87
2023/06/20 08:12:42;;;;;;;8.03;7.07;;;;;;;30.67;39.99;95070.38;5096776;28;20459;-87
2023/06/20 08:15:09;;;;;;;7.63;6.93;;;;;;;30.77;40.48;95062.38;5096010;28;20448;-86
2023/06/20 08:17:36;;;;;;;10.07;7.73;;;;;;;30.63;40.75;95065.69;5044218;28;20447;-87
2023/06/20 08:20:09;;;;;;;9.10;8.20;;;;;;;30.37;41.20;95064.50;5096920;28;20443;-88
2023/06/20 08:22:37;;;;;;;8.47;7.50;;;;;;;29.87;40.38;95063.44;5045081;28;20452;-87
2023/06/20 08:25:04;;;;;;;9.03;8.13;;;;;;;29.91;40.50;95061.88;5096037;28;20945;-87
2023/06/20 08:27:34;;;;;;;9.70;7.90;;;;;;;29.73;41.87;95061.28;5044765;28;20476;-87
2023/06/20 08:30:01;;;;;;;10.93;7.70;;;;;;;29.42;40.59;95065.31;5096348;28;20804;-87
2023/06/20 08:32:49;;;;;;;9.10;7.97;;;;;;;29.41;43.71;95061.78;5096256;28;20455;-86
2023/06/20 08:35:17;;;;;;;10.83;7.50;;;;;;;29.42;43.06;95062.59;5033009;28;20497;-86
2023/06/20 08:37:45;;;;;;;12.07;7.70;;;;;;;29.44;42.75;95065.88;5033335;28;20834;-87
2023/06/20 08:40:14;;;;;;;9.70;8.90;;;;;;;29.20;42.86;95070.56;5033298;28;20443;-87
2023/06/20 08:42:43;;;;;;;11.63;7.97;;;;;;;29.02;41.58;95063.50;5033237;28;20438;-87
2023/06/20 08:45:11;;;;;;;9.53;8.30;;;;;;;29.01;43.87;95069.97;5033215;28;20458;-86
2023/06/20 08:47:38;;;;;;;13.07;8.90;;;;;;;29.12;43.70;95065.56;5033187;28;20965;-86
2023/06/20 08:50:06;;;;;;;8.80;8.00;;;;;;;29.29;42.70;95069.16;5032763;28;21068;-87
2023/06/20 08:52:40;;;;;;;8.77;7.97;;;;;;;29.29;42.25;95075.38;4992802;28;20440;-86
2023/06/20 08:55:10;;;;;;;11.80;8.13;;;;;;;29.33;42.45;95073.00;5094925;28;20964;-87
2023/06/20 08:57:37;;;;;;;11.60;7.83;;;;;;;29.15;43.09;95075.88;5095725;28;20436;-87
2023/06/20 09:00:07;;;;;;;7.77;7.00;;;;;;;29.26;44.15;95085.84;5095355;28;20852;-87
2023/06/20 09:02:37;;;;;;;8.83;7.80;;;;;;;29.31;44.16;95083.25;5095473;28;20780;-87
2023/06/20 09:05:05;;;;;;;8.90;8.07;;;;;;;29.59;41.84;95075.13;5095409;28;20470;-87
2023/06/20 09:07:37;;;;;;;13.40;7.10;;;;;;;29.90;41.49;95081.06;5095077;28;20440;-87
2023/06/20 09:10:05;;;;;;;9.00;8.07;;;;;;;30.03;41.04;95071.81;5094936;28;20525;-86
2023/06/20 09:12:47;;;;;;;9.53;8.63;;;;;;;30.07;39.78;95071.09;5094840;28;20443;-87
2023/06/20 09:15:15;;;;;;;8.87;7.97;;;;;;;30.02;41.11;95067.44;5095148;28;20440;-87
2023/06/20 09:17:42;;;;;;;13.87;8.63;;;;;;;29.87;41.12;95057.19;5094722;28;20493;-87
2023/06/20 09:20:11;;;;;;;10.47;8.23;;;;;;;29.87;41.62;95062.63;5042302;28;20493;-86
2023/06/20 09:22:39;;;;;;;10.10;8.50;;;;;;;29.85;42.04;95059.34;5043205;28;20444;-87
2023/06/20 09:25:07;;;;;;;10.73;9.60;;;;;;;29.87;41.09;95051.78;5094823;28;20451;-87
2023/06/20 09:27:38;;;;;;;12.20;8.40;;;;;;;29.69;42.43;95057.44;5095095;28;20436;-87
2023/06/20 09:30:08;;;;;;;12.33;8.80;;;;;;;29.78;42.84;95047.84;5095266;28;20493;-86
2023/06/20 09:32:36;;;;;;;10.30;7.43;;;;;;;29.69;42.21;95049.31;5042248;28;20432;-87
2023/06/20 09:35:04;;;;;;;9.37;8.33;;;;;;;29.75;42.80;95053.75;5095369;28;20499;-87
2023/06/20 09:37:41;;;;;;;10.60;7.93;;;;;;;29.78;42.30;95045.13;5094991;28;20483;-87
2023/06/20 09:40:10;;;;;;;9.50;7.80;;;;;;;29.76;40.78;95044.56;5094934;28;20431;-87
2023/06/20 09:42:38;;;;;;;14.07;8.33;;;;;;;29.63;43.47;95047.59;5094943;28;20447;-87
2023/06/20 09:45:08;;;;;;;10.20;7.63;;;;;;;29.34;42.09;95054.91;5094849;28;20444;-87
2023/06/20 09:47:37;;;;;;;9.27;8.37;;;;;;;29.25;42.70;95047.19;5094469;28;20508;-87
2023/06/20 09:50:08;;;;;;;8.90;8.10;;;;;;;29.08;42.27;95040.09;5094787;28;20451;-86
2023/06/20 09:52:39;;;;;;;11.20;9.07;;;;;;;28.97;43.75;95048.00;5094135;28;20455;-87
2023/06/20 09:55:11;;;;;;;9.97;9.00;;;;;;;28.63;43.36;95041.63;5094230;28;20443;-87
2023/06/20 09:57:42;;;;;;;10.13;9.23;;;;;;;28.57;44.87;95039.84;5043413;28;20483;-87
2023/06/20 10:00:15;;;;;;;10.13;9.33;;;;;;;28.44;44.53;95040.13;5094124;28;20444;-86
2023/06/20 10:02:45;;;;;;;9.43;8.60;;;;;;;28.27;44.25;95052.69;5094112;28;20441;-86
2023/06/20 10:05:13;;;;;;;10.87;8.60;;;;;;;28.33;45.17;95043.63;5094650;28;20440;-86
2023/06/20 10:07:41;;;;;;;9.07;7.93;;;;;;;28.48;46.19;95041.28;5094105;28;20995;-86
2023/06/20 10:10:08;;;;;;;14.40;8.73;;;;;;;28.57;46.17;95044.44;5094606;28;20805;-86
2023/06/20 10:12:36;;;;;;;9.63;8.60;;;;;;;28.53;45.71;95037.88;5094425;28;20440;-87
2023/06/20 10:15:05;;;;;;;12.60;8.47;;;;;;;28.54;46.17;95039.50;5094350;28;20483;-87
2023/06/20 10:17:35;;;;;;;9.03;8.13;;;;;;;28.52;45.35;95037.03;5094740;28;20523;-86
2023/06/20 10:20:06;;;;;;;10.37;8.87;;;;;;;28.51;45.14;95042.69;5094478;28;20497;-87
2023/06/20 10:22:34;;;;;;;9.37;8.40;;;;;;;28.43;44.70;95041.19;5094836;28;20443;-87
2023/06/20 10:25:12;;;;;;;9.57;8.70;;;;;;;28.22;43.05;95039.88;5094436;28;20476;-87
2023/06/20 10:27:43;;;;;;;10.43;9.20;;;;;;;28.23;44.83;95035.28;5094756;28;20836;-86
2023/06/20 10:30:12;;;;;;;10.40;9.50;;;;;;;28.27;44.96;95036.50;5094375;28;20495;-87
2023/06/20 10:33:09;;;;;;;10.53;8.50;;;;;;;28.22;46.02;95042.56;5093992;28;20440;-86
2023/06/20 10:35:36;;;;;;;12.00;9.13;;;;;;;28.12;46.65;95036.13;5094284;28;20440;-86
2023/06/20 10:38:09;;;;;;;10.93;9.30;;;;;;;28.04;46.50;95039.97;5093483;28;20476;-86
2023/06/20 10:40:37;;;;;;;8.80;8.00;;;;;;;27.89;47.28;95040.47;5093518;28;20436;-86
2023/06/20 10:43:08;;;;;;;9.97;9.10;;;;;;;27.88;46.91;95035.31;5093912;28;20447;-87
2023/06/20 10:45:36;;;;;;;9.60;8.60;;;;;;;27.80;48.34;95032.97;5093751;28;20440;-87
2023/06/20 10:48:03;;;;;;;12.73;9.10;;;;;;;27.52;48.66;95029.03;5094031;28;20448;-85
2023/06/20 10:50:31;;;;;;;9.17;8.20;;;;;;;27.34;48.92;95023.69;5042297;28;20448;-86
2023/06/20 10:53:02;;;;;;;9.10;8.20;;;;;;;27.22;49.03;95026.38;5094464;28;20830;-87
2023/06/20 10:55:30;;;;;;;10.07;9.17;;;;;;;26.99;49.82;95024.41;5094456;28;20444;-86
2023/06/20 10:57:57;;;;;;;9.17;8.40;;;;;;;26.87;49.44;95028.88;5093816;28;20440;-87
2023/06/20 11:00:24;;;;;;;9.23;8.40;;;;;;;27.07;50.36;95018.69;5094748;28;20857;-86
2023/06/20 11:02:53;;;;;;;9.93;8.93;;;;;;;27.31;49.27;95018.78;5094357;28;20449;-86
2023/06/20 11:05:24;;;;;;;10.53;8.70;;;;;;;27.54;50.88;95010.75;5094483;28;20443;-86
2023/06/20 11:07:58;;;;;;;8.43;7.63;;;;;;;27.74;48.54;95013.94;5094676;28;20444;-85
2023/06/20 11:10:28;;;;;;;9.90;9.00;;;;;;;27.82;48.67;95015.50;5095434;28;20499;-86
2023/06/20 11:12:56;;;;;;;9.40;8.60;;;;;;;27.91;50.06;95011.38;5043998;28;20439;-86
2023/06/20 11:15:25;;;;;;;10.00;8.40;;;;;;;28.07;49.26;95009.88;5098939;28;21011;-86
2023/06/20 11:17:52;;;;;;;8.73;7.93;;;;;;;28.20;48.28;95001.50;5099035;28;21046;-86
2023/06/20 11:20:22;;;;;;;9.00;8.30;;;;;;;28.33;48.37;95001.28;5098344;28;20454;-88
2023/06/20 11:22:50;;;;;;;8.70;8.00;;;;;;;28.39;47.62;94994.13;5045989;28;20440;-87
2023/06/20 11:25:26;;;;;;;8.80;7.90;;;;;;;28.37;47.53;94994.38;5098378;28;20423;-87
2023/06/20 11:27:53;;;;;;;9.87;7.67;;;;;;;28.42;46.69;94982.03;5098734;28;20929;-87
2023/06/20 11:30:31;;;;;;;9.73;8.23;;;;;;;28.54;48.38;94986.31;5098084;28;20472;-87
2023/06/20 11:33:03;;;;;;;13.53;9.33;;;;;;;28.29;45.71;94988.50;5046197;28;20435;-86
2023/06/20 11:35:54;;;;;;;14.63;9.43;;;;;;;28.26;46.14;94995.19;5097628;28;20447;-86
2023/06/20 11:38:23;;;;;;;10.07;9.17;;;;;;;28.37;47.80;95002.47;4995253;28;20491;-87
2023/06/20 11:41:03;;;;;;;9.77;8.73;;;;;;;28.45;46.28;94989.66;4963821;28;20495;-86
2023/06/20 11:43:36;;;;;;;9.03;8.13;;;;;;;28.51;45.51;94980.59;4995333;28;20444;-87
2023/06/20 11:46:04;;;;;;;9.20;8.30;;;;;;;28.40;43.65;94984.97;4995097;28;20483;-85
2023/06/20 11:48:30;;;;;;;10.20;8.63;;;;;;;28.34;44.40;94994.03;4994821;28;20459;-87
2023/06/20 11:50:59;;;;;;;9.10;6.60;;;;;;;28.30;44.70;94990.94;4947225;28;20448;-88
2023/06/20 11:53:29;;;;;;;9.43;7.73;;;;;;;28.05;44.16;94993.09;4995199;28;20445;-86
2023/06/20 11:55:59;;;;;;;17.53;6.50;;;;;;;27.80;44.18;94989.81;4994875;28;20452;-86
2023/06/20 11:58:27;;;;;;;8.63;6.87;;;;;;;27.46;44.01;94993.00;4995926;28;20444;-86
2023/06/20 12:01:08;;;;;;;7.80;7.10;;;;;;;27.44;44.02;94991.59;4994824;28;20445;-85
2023/06/20 12:03:37;;;;;;;8.37;7.47;;;;;;;27.54;42.58;94991.88;4995067;28;20996;-87
2023/06/20 12:06:22;;;;;;;8.40;6.93;;;;;;;27.65;43.55;94977.59;4994718;28;20934;-87
2023/06/20 12:08:54;;;;;;;15.13;8.13;;;;;;;27.82;45.59;94985.00;4994873;28;20538;-87
2023/06/20 12:11:22;;;;;;;7.50;6.80;;;;;;;27.95;43.23;94984.75;4994861;28;20471;-85
2023/06/20 12:13:49;;;;;;;10.20;7.77;;;;;;;27.72;43.64;94983.69;4999048;28;20444;-87
2023/06/20 12:16:16;;;;;;;9.93;8.53;;;;;;;27.69;45.40;94986.84;5097181;28;20440;-87
2023/06/20 12:18:43;;;;;;;8.23;7.43;;;;;;;27.61;44.55;94987.19;5096662;28;20454;-86